sensor_id;sensor_type;location;lat;lon;timestamp;temperature;humidity
75985;DHT22;65033;44.660;37.758;2023-02-27T00:00:11;28.30;37.11
75985;DHT22;65033;44.660;37.758;2023-02-27T00:01:19;28.29;37.07
75985;DHT22;65033;44.660;37.758;2023-02-27T00:02:23;28.29;37.09
75985;DHT22;65033;44.660;37.758;2023-02-27T00:03:26;28.28;37.08
75985;DHT22;65033;44.660;37.758;2023-02-27T00:04:30;28.27;37.07
75985;DHT22;65033;44.660;37.758;2023-02-27T00:05:33;28.26;37.07
75985;DHT22;65033;44.660;37.758;2023-02-27T00:06:36;28.27;37.06
75985;DHT22;65033;44.660;37.758;2023-02-27T00:07:41;28.27;37.02
75985;DHT22;65033;44.660;37.758;2023-02-27T00:08:44;28.26;37.01
75985;DHT22;65033;44.660;37.758;2023-02-27T00:09:47;28.27;37.00
75985;DHT22;65033;44.660;37.758;2023-02-27T00:10:51;28.26;36.97
75985;DHT22;65033;44.660;37.758;2023-02-27T00:11:54;28.27;36.95
75985;DHT22;65033;44.660;37.758;2023-02-27T00:12:58;28.27;36.93
75985;DHT22;65033;44.660;37.758;2023-02-27T00:14:01;28.27;36.92
75985;DHT22;65033;44.660;37.758;2023-02-27T00:15:05;28.26;36.89
75985;DHT22;65033;44.660;37.758;2023-02-27T00:16:09;28.26;36.88
75985;DHT22;65033;44.660;37.758;2023-02-27T00:17:14;28.26;36.87
75985;DHT22;65033;44.660;37.758;2023-02-27T00:18:17;28.26;36.88
75985;DHT22;65033;44.660;37.758;2023-02-27T00:19:20;28.26;36.88
75985;DHT22;65033;44.660;37.758;2023-02-27T00:20:26;28.25;36.84
75985;DHT22;65033;44.660;37.758;2023-02-27T00:21:30;28.24;36.83
75985;DHT22;65033;44.660;37.758;2023-02-27T00:22:33;28.26;36.82
75985;DHT22;65033;44.660;37.758;2023-02-27T00:23:38;28.24;36.77
75985;DHT22;65033;44.660;37.758;2023-02-27T00:24:41;28.24;36.79
75985;DHT22;65033;44.660;37.758;2023-02-27T00:25:45;28.24;36.77
75985;DHT22;65033;44.660;37.758;2023-02-27T00:26:48;28.23;36.75
75985;DHT22;65033;44.660;37.758;2023-02-27T00:27:52;28.24;36.74
75985;DHT22;65033;44.660;37.758;2023-02-27T00:28:55;28.24;36.72
75985;DHT22;65033;44.660;37.758;2023-02-27T00:29:58;28.25;36.72
75985;DHT22;65033;44.660;37.758;2023-02-27T00:31:02;28.24;36.70
75985;DHT22;65033;44.660;37.758;2023-02-27T00:32:06;28.23;36.69
75985;DHT22;65033;44.660;37.758;2023-02-27T00:33:09;28.23;36.67
75985;DHT22;65033;44.660;37.758;2023-02-27T00:34:15;28.21;36.66
75985;DHT22;65033;44.660;37.758;2023-02-27T00:35:19;28.23;36.63
75985;DHT22;65033;44.660;37.758;2023-02-27T00:36:22;28.24;36.62
75985;DHT22;65033;44.660;37.758;2023-02-27T00:37:26;28.21;36.60
75985;DHT22;65033;44.660;37.758;2023-02-27T00:38:29;28.21;36.59
75985;DHT22;65033;44.660;37.758;2023-02-27T00:39:34;28.24;36.56
75985;DHT22;65033;44.660;37.758;2023-02-27T00:40:38;28.23;36.55
75985;DHT22;65033;44.660;37.758;2023-02-27T00:41:41;28.23;36.53
75985;DHT22;65033;44.660;37.758;2023-02-27T00:42:44;28.24;36.52
75985;DHT22;65033;44.660;37.758;2023-02-27T00:43:48;28.20;36.53
75985;DHT22;65033;44.660;37.758;2023-02-27T00:44:52;28.21;36.50
75985;DHT22;65033;44.660;37.758;2023-02-27T00:45:55;28.21;36.50
75985;DHT22;65033;44.660;37.758;2023-02-27T00:46:59;28.20;36.47
75985;DHT22;65033;44.660;37.758;2023-02-27T00:48:02;28.23;36.43
75985;DHT22;65033;44.660;37.758;2023-02-27T00:49:06;28.20;36.43
75985;DHT22;65033;44.660;37.758;2023-02-27T00:50:10;28.21;36.41
75985;DHT22;65033;44.660;37.758;2023-02-27T00:51:13;28.21;36.40
75985;DHT22;65033;44.660;37.758;2023-02-27T00:52:16;28.21;36.38
75985;DHT22;65033;44.660;37.758;2023-02-27T00:53:20;28.20;36.39
75985;DHT22;65033;44.660;37.758;2023-02-27T00:54:23;28.20;36.39
75985;DHT22;65033;44.660;37.758;2023-02-27T00:55:28;28.20;36.35
75985;DHT22;65033;44.660;37.758;2023-02-27T00:56:31;28.21;36.34
75985;DHT22;65033;44.660;37.758;2023-02-27T00:57:34;28.20;36.34
75985;DHT22;65033;44.660;37.758;2023-02-27T00:58:38;28.20;36.34
75985;DHT22;65033;44.660;37.758;2023-02-27T00:59:41;28.19;36.31
75985;DHT22;65033;44.660;37.758;2023-02-27T01:00:48;28.18;36.30
75985;DHT22;65033;44.660;37.758;2023-02-27T01:01:52;28.20;36.27
75985;DHT22;65033;44.660;37.758;2023-02-27T01:02:56;28.19;36.27
75985;DHT22;65033;44.660;37.758;2023-02-27T01:03:59;28.19;36.26
75985;DHT22;65033;44.660;37.758;2023-02-27T01:05:02;28.19;36.25
75985;DHT22;65033;44.660;37.758;2023-02-27T01:06:06;28.19;36.21
75985;DHT22;65033;44.660;37.758;2023-02-27T01:07:10;28.19;36.24
75985;DHT22;65033;44.660;37.758;2023-02-27T01:08:13;28.19;36.22
75985;DHT22;65033;44.660;37.758;2023-02-27T01:09:16;28.17;36.21
75985;DHT22;65033;44.660;37.758;2023-02-27T01:10:19;28.18;36.20
75985;DHT22;65033;44.660;37.758;2023-02-27T01:11:24;28.17;36.18
75985;DHT22;65033;44.660;37.758;2023-02-27T01:12:28;28.18;36.17
75985;DHT22;65033;44.660;37.758;2023-02-27T01:13:31;28.18;36.15
75985;DHT22;65033;44.660;37.758;2023-02-27T01:14:34;28.18;36.11
75985;DHT22;65033;44.660;37.758;2023-02-27T01:15:38;28.18;36.11
75985;DHT22;65033;44.660;37.758;2023-02-27T01:16:43;28.19;36.08
75985;DHT22;65033;44.660;37.758;2023-02-27T01:17:47;28.19;36.05
75985;DHT22;65033;44.660;37.758;2023-02-27T01:18:51;28.18;36.05
75985;DHT22;65033;44.660;37.758;2023-02-27T01:19:54;28.17;36.05
75985;DHT22;65033;44.660;37.758;2023-02-27T01:20:58;28.19;36.05
75985;DHT22;65033;44.660;37.758;2023-02-27T01:22:01;28.18;36.02
75985;DHT22;65033;44.660;37.758;2023-02-27T01:23:04;28.17;36.02
75985;DHT22;65033;44.660;37.758;2023-02-27T01:24:08;28.18;36.02
75985;DHT22;65033;44.660;37.758;2023-02-27T01:25:11;28.18;36.02
75985;DHT22;65033;44.660;37.758;2023-02-27T01:26:14;28.18;35.98
75985;DHT22;65033;44.660;37.758;2023-02-27T01:27:19;28.18;35.98
75985;DHT22;65033;44.660;37.758;2023-02-27T01:28:22;28.17;35.98
75985;DHT22;65033;44.660;37.758;2023-02-27T01:29:26;28.18;35.95
75985;DHT22;65033;44.660;37.758;2023-02-27T01:30:29;28.17;35.95
75985;DHT22;65033;44.660;37.758;2023-02-27T01:31:33;28.17;35.95
75985;DHT22;65033;44.660;37.758;2023-02-27T01:32:36;28.18;35.94
75985;DHT22;65033;44.660;37.758;2023-02-27T01:33:40;28.17;35.93
75985;DHT22;65033;44.660;37.758;2023-02-27T01:34:43;28.17;35.92
75985;DHT22;65033;44.660;37.758;2023-02-27T01:35:47;28.17;35.91
75985;DHT22;65033;44.660;37.758;2023-02-27T01:36:50;28.18;35.89
75985;DHT22;65033;44.660;37.758;2023-02-27T01:37:53;28.17;35.88
75985;DHT22;65033;44.660;37.758;2023-02-27T01:38:57;28.16;35.87
75985;DHT22;65033;44.660;37.758;2023-02-27T01:40:00;28.17;35.85
75985;DHT22;65033;44.660;37.758;2023-02-27T01:41:03;28.17;35.86
75985;DHT22;65033;44.660;37.758;2023-02-27T01:42:19;28.18;35.80
75985;DHT22;65033;44.660;37.758;2023-02-27T01:43:23;28.18;35.85
75985;DHT22;65033;44.660;37.758;2023-02-27T01:44:28;28.17;35.88
75985;DHT22;65033;44.660;37.758;2023-02-27T01:45:33;28.17;35.89
75985;DHT22;65033;44.660;37.758;2023-02-27T01:46:37;28.16;35.89
75985;DHT22;65033;44.660;37.758;2023-02-27T01:47:42;28.16;35.87
75985;DHT22;65033;44.660;37.758;2023-02-27T01:48:46;28.15;35.85
75985;DHT22;65033;44.660;37.758;2023-02-27T01:49:50;28.17;35.86
75985;DHT22;65033;44.660;37.758;2023-02-27T01:50:57;28.16;35.85
75985;DHT22;65033;44.660;37.758;2023-02-27T01:52:04;28.15;35.88
75985;DHT22;65033;44.660;37.758;2023-02-27T01:53:08;28.16;35.89
75985;DHT22;65033;44.660;37.758;2023-02-27T01:54:15;28.15;35.86
75985;DHT22;65033;44.660;37.758;2023-02-27T01:55:20;28.16;35.85
75985;DHT22;65033;44.660;37.758;2023-02-27T01:56:28;28.16;35.86
75985;DHT22;65033;44.660;37.758;2023-02-27T01:57:33;28.15;35.85
75985;DHT22;65033;44.660;37.758;2023-02-27T01:58:37;28.16;35.86
75985;DHT22;65033;44.660;37.758;2023-02-27T01:59:41;28.14;35.85
75985;DHT22;65033;44.660;37.758;2023-02-27T02:00:45;28.14;35.82
75985;DHT22;65033;44.660;37.758;2023-02-27T02:01:50;28.14;35.81
75985;DHT22;65033;44.660;37.758;2023-02-27T02:03:02;28.14;35.79
75985;DHT22;65033;44.660;37.758;2023-02-27T02:04:14;28.14;35.79
75985;DHT22;65033;44.660;37.758;2023-02-27T02:05:20;28.14;35.78
75985;DHT22;65033;44.660;37.758;2023-02-27T02:06:24;28.13;35.75
75985;DHT22;65033;44.660;37.758;2023-02-27T02:07:28;28.13;35.73
75985;DHT22;65033;44.660;37.758;2023-02-27T02:08:35;28.15;35.70
75985;DHT22;65033;44.660;37.758;2023-02-27T02:09:42;28.14;35.70
75985;DHT22;65033;44.660;37.758;2023-02-27T02:10:47;28.14;35.67
75985;DHT22;65033;44.660;37.758;2023-02-27T02:11:53;28.15;35.66
75985;DHT22;65033;44.660;37.758;2023-02-27T02:12:59;28.14;35.63
75985;DHT22;65033;44.660;37.758;2023-02-27T02:14:03;28.14;35.61
75985;DHT22;65033;44.660;37.758;2023-02-27T02:15:14;28.14;35.63
75985;DHT22;65033;44.660;37.758;2023-02-27T02:16:36;28.13;35.62
75985;DHT22;65033;44.660;37.758;2023-02-27T02:17:44;28.13;35.63
75985;DHT22;65033;44.660;37.758;2023-02-27T02:18:58;28.12;35.61
75985;DHT22;65033;44.660;37.758;2023-02-27T02:22:00;28.11;35.60
75985;DHT22;65033;44.660;37.758;2023-02-27T02:23:32;28.10;35.59
75985;DHT22;65033;44.660;37.758;2023-02-27T02:26:36;28.10;35.60
75985;DHT22;65033;44.660;37.758;2023-02-27T02:27:55;28.10;35.58
75985;DHT22;65033;44.660;37.758;2023-02-27T02:32:41;28.09;35.57
75985;DHT22;65033;44.660;37.758;2023-02-27T02:34:23;28.09;35.50
75985;DHT22;65033;44.660;37.758;2023-02-27T02:35:59;28.08;35.46
75985;DHT22;65033;44.660;37.758;2023-02-27T02:37:41;28.09;35.42
75985;DHT22;65033;44.660;37.758;2023-02-27T02:40:36;28.09;35.38
75985;DHT22;65033;44.660;37.758;2023-02-27T02:41:52;28.08;35.37
75985;DHT22;65033;44.660;37.758;2023-02-27T02:43:03;28.09;35.39
75985;DHT22;65033;44.660;37.758;2023-02-27T02:44:16;28.09;35.36
75985;DHT22;65033;44.660;37.758;2023-02-27T02:45:26;28.08;35.40
75985;DHT22;65033;44.660;37.758;2023-02-27T02:46:39;28.09;35.40
75985;DHT22;65033;44.660;37.758;2023-02-27T02:47:54;28.06;35.37
75985;DHT22;65033;44.660;37.758;2023-02-27T02:49:04;28.08;35.37
75985;DHT22;65033;44.660;37.758;2023-02-27T02:50:13;28.08;35.35
75985;DHT22;65033;44.660;37.758;2023-02-27T02:51:22;28.06;35.35
75985;DHT22;65033;44.660;37.758;2023-02-27T02:52:33;28.08;35.34
75985;DHT22;65033;44.660;37.758;2023-02-27T02:53:42;28.06;35.31
75985;DHT22;65033;44.660;37.758;2023-02-27T02:54:55;28.05;35.29
75985;DHT22;65033;44.660;37.758;2023-02-27T02:56:04;28.06;35.28
75985;DHT22;65033;44.660;37.758;2023-02-27T02:57:13;28.06;35.29
75985;DHT22;65033;44.660;37.758;2023-02-27T02:58:19;28.05;35.30
75985;DHT22;65033;44.660;37.758;2023-02-27T02:59:29;28.05;35.29
75985;DHT22;65033;44.660;37.758;2023-02-27T03:00:36;28.08;35.31
75985;DHT22;65033;44.660;37.758;2023-02-27T03:01:45;28.06;35.35
75985;DHT22;65033;44.660;37.758;2023-02-27T03:02:54;28.06;35.32
75985;DHT22;65033;44.660;37.758;2023-02-27T03:04:04;28.08;35.32
75985;DHT22;65033;44.660;37.758;2023-02-27T03:05:13;28.05;35.33
75985;DHT22;65033;44.660;37.758;2023-02-27T03:06:20;28.05;35.30
75985;DHT22;65033;44.660;37.758;2023-02-27T03:07:29;28.05;35.28
75985;DHT22;65033;44.660;37.758;2023-02-27T03:08:34;28.05;35.28
75985;DHT22;65033;44.660;37.758;2023-02-27T03:09:41;28.05;35.29
75985;DHT22;65033;44.660;37.758;2023-02-27T03:10:49;28.05;35.28
75985;DHT22;65033;44.660;37.758;2023-02-27T03:11:56;28.05;35.29
75985;DHT22;65033;44.660;37.758;2023-02-27T03:14:26;28.05;35.28
75985;DHT22;65033;44.660;37.758;2023-02-27T03:15:35;28.04;35.28
75985;DHT22;65033;44.660;37.758;2023-02-27T03:16:42;28.04;35.24
75985;DHT22;65033;44.660;37.758;2023-02-27T03:17:51;28.06;35.22
75985;DHT22;65033;44.660;37.758;2023-02-27T03:18:58;28.05;35.21
75985;DHT22;65033;44.660;37.758;2023-02-27T03:20:05;28.05;35.19
75985;DHT22;65033;44.660;37.758;2023-02-27T03:21:13;28.05;35.19
75985;DHT22;65033;44.660;37.758;2023-02-27T03:22:22;28.06;35.16
75985;DHT22;65033;44.660;37.758;2023-02-27T03:23:29;28.04;35.15
75985;DHT22;65033;44.660;37.758;2023-02-27T03:24:38;28.05;35.13
75985;DHT22;65033;44.660;37.758;2023-02-27T03:25:46;28.05;35.13
75985;DHT22;65033;44.660;37.758;2023-02-27T03:26:54;28.06;35.08
75985;DHT22;65033;44.660;37.758;2023-02-27T03:28:03;28.06;35.08
75985;DHT22;65033;44.660;37.758;2023-02-27T03:29:10;28.06;35.07
75985;DHT22;65033;44.660;37.758;2023-02-27T03:30:18;28.06;35.05
75985;DHT22;65033;44.660;37.758;2023-02-27T03:31:30;28.06;35.05
75985;DHT22;65033;44.660;37.758;2023-02-27T03:32:39;28.05;35.02
75985;DHT22;65033;44.660;37.758;2023-02-27T03:33:47;28.06;35.04
75985;DHT22;65033;44.660;37.758;2023-02-27T03:34:52;28.05;35.02
75985;DHT22;65033;44.660;37.758;2023-02-27T03:35:58;28.05;35.00
75985;DHT22;65033;44.660;37.758;2023-02-27T03:37:13;28.06;34.98
75985;DHT22;65033;44.660;37.758;2023-02-27T03:38:23;28.05;34.97
75985;DHT22;65033;44.660;37.758;2023-02-27T03:39:37;28.05;34.95
75985;DHT22;65033;44.660;37.758;2023-02-27T03:40:51;28.08;34.95
75985;DHT22;65033;44.660;37.758;2023-02-27T03:42:09;28.05;34.93
75985;DHT22;65033;44.660;37.758;2023-02-27T03:43:39;28.06;34.92
75985;DHT22;65033;44.660;37.758;2023-02-27T03:44:55;28.06;34.88
75985;DHT22;65033;44.660;37.758;2023-02-27T03:46:06;28.06;34.89
75985;DHT22;65033;44.660;37.758;2023-02-27T03:47:11;28.06;34.89
75985;DHT22;65033;44.660;37.758;2023-02-27T03:48:15;28.06;34.90
75985;DHT22;65033;44.660;37.758;2023-02-27T03:49:18;28.08;34.88
75985;DHT22;65033;44.660;37.758;2023-02-27T03:50:23;28.06;34.89
75985;DHT22;65033;44.660;37.758;2023-02-27T03:51:27;28.06;34.84
75985;DHT22;65033;44.660;37.758;2023-02-27T03:52:31;28.08;34.82
75985;DHT22;65033;44.660;37.758;2023-02-27T03:53:39;28.08;34.79
75985;DHT22;65033;44.660;37.758;2023-02-27T03:54:48;28.08;34.77
75985;DHT22;65033;44.660;37.758;2023-02-27T03:55:55;28.08;34.79
75985;DHT22;65033;44.660;37.758;2023-02-27T03:57:01;28.05;34.72
75985;DHT22;65033;44.660;37.758;2023-02-27T03:58:05;28.05;34.50
75985;DHT22;65033;44.660;37.758;2023-02-27T03:59:08;28.05;34.41
75985;DHT22;65033;44.660;37.758;2023-02-27T04:00:19;28.04;34.70
75985;DHT22;65033;44.660;37.758;2023-02-27T04:01:24;28.04;34.73
75985;DHT22;65033;44.660;37.758;2023-02-27T04:02:28;28.04;34.76
75985;DHT22;65033;44.660;37.758;2023-02-27T04:03:34;28.04;34.79
75985;DHT22;65033;44.660;37.758;2023-02-27T04:04:39;28.03;34.79
75985;DHT22;65033;44.660;37.758;2023-02-27T04:06:03;28.03;34.79
75985;DHT22;65033;44.660;37.758;2023-02-27T04:07:31;28.05;34.76
75985;DHT22;65033;44.660;37.758;2023-02-27T04:08:43;28.04;34.73
75985;DHT22;65033;44.660;37.758;2023-02-27T04:10:14;28.03;34.69
75985;DHT22;65033;44.660;37.758;2023-02-27T04:11:34;28.04;34.65
75985;DHT22;65033;44.660;37.758;2023-02-27T04:13:02;28.03;34.61
75985;DHT22;65033;44.660;37.758;2023-02-27T04:15:49;28.04;34.62
75985;DHT22;65033;44.660;37.758;2023-02-27T04:17:13;28.02;34.61
75985;DHT22;65033;44.660;37.758;2023-02-27T04:18:23;28.03;34.63
75985;DHT22;65033;44.660;37.758;2023-02-27T04:19:44;28.03;34.65
75985;DHT22;65033;44.660;37.758;2023-02-27T04:20:53;28.03;34.66
75985;DHT22;65033;44.660;37.758;2023-02-27T04:22:06;28.04;34.64
75985;DHT22;65033;44.660;37.758;2023-02-27T04:23:17;28.03;34.63
75985;DHT22;65033;44.660;37.758;2023-02-27T04:24:24;28.03;34.60
75985;DHT22;65033;44.660;37.758;2023-02-27T04:25:41;28.02;34.63
75985;DHT22;65033;44.660;37.758;2023-02-27T04:26:51;28.03;34.61
75985;DHT22;65033;44.660;37.758;2023-02-27T04:27:58;28.02;34.63
75985;DHT22;65033;44.660;37.758;2023-02-27T04:29:10;28.02;34.60
75985;DHT22;65033;44.660;37.758;2023-02-27T04:30:22;28.02;34.61
75985;DHT22;65033;44.660;37.758;2023-02-27T04:31:29;28.04;34.60
75985;DHT22;65033;44.660;37.758;2023-02-27T04:32:38;28.03;34.59
75985;DHT22;65033;44.660;37.758;2023-02-27T04:33:45;28.03;34.59
75985;DHT22;65033;44.660;37.758;2023-02-27T04:34:54;28.03;34.56
75985;DHT22;65033;44.660;37.758;2023-02-27T04:36:03;28.04;34.56
75985;DHT22;65033;44.660;37.758;2023-02-27T04:37:12;28.03;34.57
75985;DHT22;65033;44.660;37.758;2023-02-27T04:38:22;28.03;34.58
75985;DHT22;65033;44.660;37.758;2023-02-27T04:39:30;28.03;34.63
75985;DHT22;65033;44.660;37.758;2023-02-27T04:40:37;28.04;34.70
75985;DHT22;65033;44.660;37.758;2023-02-27T04:41:44;28.03;34.66
75985;DHT22;65033;44.660;37.758;2023-02-27T04:42:51;28.03;34.63
75985;DHT22;65033;44.660;37.758;2023-02-27T04:43:59;28.04;34.63
75985;DHT22;65033;44.660;37.758;2023-02-27T04:45:07;28.03;34.63
75985;DHT22;65033;44.660;37.758;2023-02-27T04:46:15;28.04;34.66
75985;DHT22;65033;44.660;37.758;2023-02-27T04:47:20;28.05;34.67
75985;DHT22;65033;44.660;37.758;2023-02-27T04:48:29;28.05;34.69
75985;DHT22;65033;44.660;37.758;2023-02-27T04:49:36;28.05;34.73
75985;DHT22;65033;44.660;37.758;2023-02-27T04:50:45;28.05;34.76
75985;DHT22;65033;44.660;37.758;2023-02-27T04:51:52;28.08;34.82
75985;DHT22;65033;44.660;37.758;2023-02-27T04:53:02;28.06;34.87
75985;DHT22;65033;44.660;37.758;2023-02-27T04:54:10;28.06;34.95
75985;DHT22;65033;44.660;37.758;2023-02-27T04:55:18;28.09;35.08
75985;DHT22;65033;44.660;37.758;2023-02-27T04:56:25;28.09;35.08
75985;DHT22;65033;44.660;37.758;2023-02-27T04:57:35;28.08;35.15
75985;DHT22;65033;44.660;37.758;2023-02-27T04:58:45;28.10;35.17
75985;DHT22;65033;44.660;37.758;2023-02-27T04:59:53;28.10;35.18
75985;DHT22;65033;44.660;37.758;2023-02-27T05:01:00;28.10;35.27
75985;DHT22;65033;44.660;37.758;2023-02-27T05:02:07;28.10;35.28
75985;DHT22;65033;44.660;37.758;2023-02-27T05:03:17;28.12;35.29
75985;DHT22;65033;44.660;37.758;2023-02-27T05:04:24;28.11;35.29
75985;DHT22;65033;44.660;37.758;2023-02-27T05:05:32;28.12;35.33
75985;DHT22;65033;44.660;37.758;2023-02-27T05:06:37;28.12;35.33
75985;DHT22;65033;44.660;37.758;2023-02-27T05:07:45;28.11;35.32
75985;DHT22;65033;44.660;37.758;2023-02-27T05:08:55;28.12;35.34
75985;DHT22;65033;44.660;37.758;2023-02-27T05:10:03;28.11;34.92
75985;DHT22;65033;44.660;37.758;2023-02-27T05:11:10;28.12;34.40
75985;DHT22;65033;44.660;37.758;2023-02-27T05:12:18;28.11;34.41
75985;DHT22;65033;44.660;37.758;2023-02-27T05:13:26;28.11;34.60
75985;DHT22;65033;44.660;37.758;2023-02-27T05:14:37;28.12;34.90
75985;DHT22;65033;44.660;37.758;2023-02-27T05:15:46;28.12;34.94
75985;DHT22;65033;44.660;37.758;2023-02-27T05:16:55;28.12;35.00
75985;DHT22;65033;44.660;37.758;2023-02-27T05:18:02;28.12;34.99
75985;DHT22;65033;44.660;37.758;2023-02-27T05:19:06;28.12;34.99
75985;DHT22;65033;44.660;37.758;2023-02-27T05:20:11;28.13;34.96
75985;DHT22;65033;44.660;37.758;2023-02-27T05:21:22;28.13;34.94
75985;DHT22;65033;44.660;37.758;2023-02-27T05:22:31;28.14;34.92
75985;DHT22;65033;44.660;37.758;2023-02-27T05:23:42;28.15;34.88
75985;DHT22;65033;44.660;37.758;2023-02-27T05:24:50;28.15;34.85
75985;DHT22;65033;44.660;37.758;2023-02-27T05:25:59;28.15;34.82
75985;DHT22;65033;44.660;37.758;2023-02-27T05:27:19;28.14;34.82
75985;DHT22;65033;44.660;37.758;2023-02-27T05:28:31;28.15;34.75
75985;DHT22;65033;44.660;37.758;2023-02-27T05:29:43;28.14;35.09
75985;DHT22;65033;44.660;37.758;2023-02-27T05:30:52;28.16;34.92
75985;DHT22;65033;44.660;37.758;2023-02-27T05:32:03;28.18;34.78
75985;DHT22;65033;44.660;37.758;2023-02-27T05:33:13;28.19;34.76
75985;DHT22;65033;44.660;37.758;2023-02-27T05:34:22;28.21;34.60
75985;DHT22;65033;44.660;37.758;2023-02-27T05:35:30;28.23;34.33
75985;DHT22;65033;44.660;37.758;2023-02-27T05:36:38;28.24;34.54
75985;DHT22;65033;44.660;37.758;2023-02-27T05:37:47;28.24;34.53
75985;DHT22;65033;44.660;37.758;2023-02-27T05:38:54;28.25;34.53
75985;DHT22;65033;44.660;37.758;2023-02-27T05:40:01;28.27;34.60
75985;DHT22;65033;44.660;37.758;2023-02-27T05:41:13;28.29;34.63
75985;DHT22;65033;44.660;37.758;2023-02-27T05:42:22;28.30;34.63
75985;DHT22;65033;44.660;37.758;2023-02-27T05:43:29;28.32;34.64
75985;DHT22;65033;44.660;37.758;2023-02-27T05:44:36;28.32;34.62
75985;DHT22;65033;44.660;37.758;2023-02-27T05:45:43;28.35;34.61
75985;DHT22;65033;44.660;37.758;2023-02-27T05:46:52;28.35;34.59
75985;DHT22;65033;44.660;37.758;2023-02-27T05:48:00;28.38;34.60
75985;DHT22;65033;44.660;37.758;2023-02-27T05:49:08;28.38;34.57
75985;DHT22;65033;44.660;37.758;2023-02-27T05:50:15;28.41;34.50
75985;DHT22;65033;44.660;37.758;2023-02-27T05:51:20;28.41;34.47
75985;DHT22;65033;44.660;37.758;2023-02-27T05:52:28;28.41;34.47
75985;DHT22;65033;44.660;37.758;2023-02-27T05:53:36;28.43;34.49
75985;DHT22;65033;44.660;37.758;2023-02-27T05:54:45;28.43;34.47
75985;DHT22;65033;44.660;37.758;2023-02-27T05:55:51;28.44;34.48
75985;DHT22;65033;44.660;37.758;2023-02-27T05:56:56;28.45;34.49
75985;DHT22;65033;44.660;37.758;2023-02-27T05:58:06;28.47;34.50
75985;DHT22;65033;44.660;37.758;2023-02-27T05:59:15;28.47;34.46
75985;DHT22;65033;44.660;37.758;2023-02-27T06:00:28;28.49;34.24
75985;DHT22;65033;44.660;37.758;2023-02-27T06:01:32;28.49;34.25
75985;DHT22;65033;44.660;37.758;2023-02-27T06:02:37;28.52;34.25
75985;DHT22;65033;44.660;37.758;2023-02-27T06:03:42;28.52;34.31
75985;DHT22;65033;44.660;37.758;2023-02-27T06:04:46;28.52;34.30
75985;DHT22;65033;44.660;37.758;2023-02-27T06:05:50;28.54;34.28
75985;DHT22;65033;44.660;37.758;2023-02-27T06:06:57;28.56;34.25
75985;DHT22;65033;44.660;37.758;2023-02-27T06:08:00;28.56;34.24
75985;DHT22;65033;44.660;37.758;2023-02-27T06:09:03;28.57;34.19
75985;DHT22;65033;44.660;37.758;2023-02-27T06:10:09;28.59;34.19
75985;DHT22;65033;44.660;37.758;2023-02-27T06:11:13;28.59;34.09
75985;DHT22;65033;44.660;37.758;2023-02-27T06:12:16;28.61;34.08
75985;DHT22;65033;44.660;37.758;2023-02-27T06:13:21;28.62;34.14
75985;DHT22;65033;44.660;37.758;2023-02-27T06:14:25;28.62;34.23
75985;DHT22;65033;44.660;37.758;2023-02-27T06:15:29;28.63;34.31
75985;DHT22;65033;44.660;37.758;2023-02-27T06:16:33;28.67;34.37
75985;DHT22;65033;44.660;37.758;2023-02-27T06:17:39;28.67;34.30
75985;DHT22;65033;44.660;37.758;2023-02-27T06:18:43;28.67;34.28
75985;DHT22;65033;44.660;37.758;2023-02-27T06:19:46;28.68;34.24
75985;DHT22;65033;44.660;37.758;2023-02-27T06:20:49;28.69;34.34
75985;DHT22;65033;44.660;37.758;2023-02-27T06:21:53;28.70;34.34
75985;DHT22;65033;44.660;37.758;2023-02-27T06:22:56;28.72;34.35
75985;DHT22;65033;44.660;37.758;2023-02-27T06:23:59;28.73;34.37
75985;DHT22;65033;44.660;37.758;2023-02-27T06:25:03;28.74;34.40
75985;DHT22;65033;44.660;37.758;2023-02-27T06:26:06;28.76;34.32
75985;DHT22;65033;44.660;37.758;2023-02-27T06:27:10;28.76;34.41
75985;DHT22;65033;44.660;37.758;2023-02-27T06:28:13;28.78;34.40
75985;DHT22;65033;44.660;37.758;2023-02-27T06:29:16;28.79;34.54
75985;DHT22;65033;44.660;37.758;2023-02-27T06:30:19;28.80;34.52
75985;DHT22;65033;44.660;37.758;2023-02-27T06:31:24;28.83;34.77
75985;DHT22;65033;44.660;37.758;2023-02-27T06:32:27;28.85;34.69
75985;DHT22;65033;44.660;37.758;2023-02-27T06:33:31;28.84;34.71
75985;DHT22;65033;44.660;37.758;2023-02-27T06:34:35;28.88;34.81
75985;DHT22;65033;44.660;37.758;2023-02-27T06:35:38;28.89;34.95
75985;DHT22;65033;44.660;37.758;2023-02-27T06:36:41;28.91;34.89
75985;DHT22;65033;44.660;37.758;2023-02-27T06:37:44;28.94;34.94
75985;DHT22;65033;44.660;37.758;2023-02-27T06:38:48;28.94;35.00
75985;DHT22;65033;44.660;37.758;2023-02-27T06:39:51;28.97;35.25
75985;DHT22;65033;44.660;37.758;2023-02-27T06:40:54;28.99;35.26
75985;DHT22;65033;44.660;37.758;2023-02-27T06:41:57;29.02;35.40
75985;DHT22;65033;44.660;37.758;2023-02-27T06:43:03;29.02;35.34
75985;DHT22;65033;44.660;37.758;2023-02-27T06:44:06;29.04;35.19
75985;DHT22;65033;44.660;37.758;2023-02-27T06:45:11;29.05;35.06
75985;DHT22;65033;44.660;37.758;2023-02-27T06:46:14;29.07;35.34
75985;DHT22;65033;44.660;37.758;2023-02-27T06:47:19;29.09;35.02
75985;DHT22;65033;44.660;37.758;2023-02-27T06:48:22;29.12;34.92
75985;DHT22;65033;44.660;37.758;2023-02-27T06:49:25;29.13;34.90
75985;DHT22;65033;44.660;37.758;2023-02-27T06:50:29;29.14;34.79
75985;DHT22;65033;44.660;37.758;2023-02-27T06:51:32;29.15;34.90
75985;DHT22;65033;44.660;37.758;2023-02-27T06:52:35;29.17;34.91
75985;DHT22;65033;44.660;37.758;2023-02-27T06:53:39;29.19;34.81
75985;DHT22;65033;44.660;37.758;2023-02-27T06:54:42;29.21;34.76
75985;DHT22;65033;44.660;37.758;2023-02-27T06:55:45;29.22;34.86
75985;DHT22;65033;44.660;37.758;2023-02-27T06:56:49;29.23;34.76
75985;DHT22;65033;44.660;37.758;2023-02-27T06:57:53;29.26;34.81
75985;DHT22;65033;44.660;37.758;2023-02-27T06:58:57;29.26;34.64
75985;DHT22;65033;44.660;37.758;2023-02-27T07:00:01;29.28;34.57
75985;DHT22;65033;44.660;37.758;2023-02-27T07:01:04;29.28;34.53
75985;DHT22;65033;44.660;37.758;2023-02-27T07:02:09;29.29;34.60
75985;DHT22;65033;44.660;37.758;2023-02-27T07:03:14;29.30;34.57
75985;DHT22;65033;44.660;37.758;2023-02-27T07:04:20;29.32;34.47
75985;DHT22;65033;44.660;37.758;2023-02-27T07:05:24;29.32;34.41
75985;DHT22;65033;44.660;37.758;2023-02-27T07:06:27;29.33;34.42
75985;DHT22;65033;44.660;37.758;2023-02-27T07:07:30;29.35;34.34
75985;DHT22;65033;44.660;37.758;2023-02-27T07:08:39;29.34;34.34